createdAt,value
2022-10-31T00:03:18.272Z,18.17
2022-10-31T00:06:43.492Z,18.16
2022-10-31T00:10:08.749Z,18.139999
2022-10-31T00:13:33.937Z,18.139999
2022-10-31T00:16:59.146Z,18.129999
2022-10-31T00:20:24.379Z,18.139999
2022-10-31T00:23:49.634Z,18.120001
2022-10-31T00:27:14.885Z,18.09
2022-10-31T00:30:40.049Z,18.030001
2022-10-31T00:34:05.295Z,17.959999
2022-10-31T00:37:30.514Z,17.879999
2022-10-31T00:40:55.771Z,17.75
2022-10-31T00:44:21.049Z,17.620001
2022-10-31T00:47:46.250Z,17.450001
2022-10-31T00:51:11.475Z,17.280001
2022-10-31T00:54:36.703Z,17.129999
2022-10-31T00:58:02.338Z,16.99
2022-10-31T01:01:27.300Z,16.809999
2022-10-31T01:04:52.421Z,16.639999
2022-10-31T01:08:17.735Z,16.530001
2022-10-31T01:11:42.980Z,16.459999
2022-10-31T01:15:08.186Z,16.389999
2022-10-31T01:18:33.429Z,16.32
2022-10-31T01:21:58.645Z,16.27
2022-10-31T01:25:23.841Z,16.209999
2022-10-31T01:28:49.054Z,16.120001
2022-10-31T01:32:14.294Z,16.049999
2022-10-31T01:35:40.385Z,15.98
2022-10-31T01:39:05.584Z,15.91
2022-10-31T01:42:30.812Z,15.83
2022-10-31T01:45:56.050Z,15.77
2022-10-31T01:49:21.288Z,15.7
2022-10-31T01:52:46.535Z,15.66
2022-10-31T01:56:11.749Z,15.61
2022-10-31T01:59:36.985Z,15.57
2022-10-31T02:03:02.566Z,15.56
2022-10-31T02:06:27.408Z,15.51
2022-10-31T02:09:52.661Z,15.45
2022-10-31T02:13:17.893Z,15.39
2022-10-31T02:16:43.080Z,15.32
2022-10-31T02:20:08.312Z,15.26
2022-10-31T02:23:33.532Z,15.23
2022-10-31T02:26:58.781Z,15.2
2022-10-31T02:30:23.983Z,15.19
2022-10-31T02:33:49.191Z,15.17
2022-10-31T02:37:14.427Z,15.14
2022-10-31T02:40:39.658Z,15.12
2022-10-31T02:44:04.886Z,15.07
2022-10-31T02:47:30.066Z,15.02
2022-10-31T02:50:55.293Z,14.96
2022-10-31T02:54:20.496Z,14.91
2022-10-31T02:57:45.728Z,14.89
2022-10-31T03:01:11.106Z,14.87
2022-10-31T03:04:36.226Z,14.84
2022-10-31T03:08:01.453Z,14.79
2022-10-31T03:11:26.683Z,14.73
2022-10-31T03:14:51.926Z,14.7
2022-10-31T03:18:17.166Z,14.7
2022-10-31T03:21:42.362Z,14.69
2022-10-31T03:25:07.595Z,14.69
2022-10-31T03:28:32.819Z,14.67
2022-10-31T03:31:58.057Z,14.66
2022-10-31T03:35:23.312Z,14.62
2022-10-31T03:38:48.503Z,14.58
2022-10-31T03:42:13.720Z,14.53
2022-10-31T03:45:38.933Z,14.5
2022-10-31T03:49:04.157Z,14.5
2022-10-31T03:52:29.395Z,14.51
2022-10-31T03:55:54.589Z,14.52
2022-10-31T03:59:19.833Z,14.52
2022-10-31T04:02:45.231Z,14.49
2022-10-31T04:06:10.257Z,14.45
2022-10-31T04:09:35.492Z,14.43
2022-10-31T04:13:01.109Z,14.39
2022-10-31T04:16:25.885Z,14.38
2022-10-31T04:19:51.114Z,14.38
2022-10-31T04:23:16.310Z,14.36
2022-10-31T04:26:41.533Z,14.35
2022-10-31T04:30:06.724Z,14.31
2022-10-31T04:33:31.940Z,14.29
2022-10-31T04:36:57.158Z,14.26
2022-10-31T04:40:22.385Z,14.23
2022-10-31T04:43:47.631Z,14.24
2022-10-31T04:47:12.813Z,14.23
2022-10-31T04:50:38.021Z,14.24
2022-10-31T04:54:03.235Z,14.25
2022-10-31T04:57:28.451Z,14.24
2022-10-31T05:00:53.717Z,14.26
2022-10-31T05:04:18.894Z,14.28
2022-10-31T05:07:44.101Z,14.32
2022-10-31T05:11:09.361Z,14.43
2022-10-31T05:14:34.571Z,14.52
2022-10-31T05:18:00.084Z,14.63
2022-10-31T05:21:25.433Z,14.7
2022-10-31T05:24:50.670Z,14.71
2022-10-31T05:28:15.891Z,14.71
2022-10-31T05:31:41.102Z,14.67
2022-10-31T05:35:06.335Z,14.62
2022-10-31T05:38:31.535Z,14.58
2022-10-31T05:41:56.759Z,14.53
2022-10-31T05:45:21.964Z,14.46
2022-10-31T05:48:47.196Z,14.41
2022-10-31T05:52:12.437Z,14.34
2022-10-31T05:55:37.621Z,14.28
2022-10-31T05:59:02.836Z,14.24
2022-10-31T06:02:28.039Z,14.17
2022-10-31T06:05:54.204Z,14.13
2022-10-31T06:09:18.494Z,14.08
2022-10-31T06:12:43.700Z,14.04
2022-10-31T06:16:08.917Z,14.03
2022-10-31T06:19:34.120Z,14.01
2022-10-31T06:22:59.632Z,14
2022-10-31T06:26:24.656Z,14
2022-10-31T06:29:49.836Z,14
2022-10-31T06:33:15.072Z,14.03
2022-10-31T06:36:40.308Z,14.08
2022-10-31T06:40:05.500Z,14.11
2022-10-31T06:43:30.729Z,14.17
2022-10-31T06:46:55.913Z,14.22
2022-10-31T06:50:21.115Z,14.27
2022-10-31T06:53:46.333Z,14.33
2022-10-31T06:57:11.609Z,14.4
2022-10-31T07:00:36.944Z,14.46
2022-10-31T07:04:02.048Z,14.52
2022-10-31T07:07:27.251Z,14.58
2022-10-31T07:10:52.521Z,14.64
2022-10-31T07:14:17.783Z,14.71
2022-10-31T07:17:43.084Z,14.76
2022-10-31T07:21:08.362Z,14.85
2022-10-31T07:24:33.629Z,14.94
2022-10-31T07:27:59.114Z,15.05
2022-10-31T07:31:24.178Z,15.16
2022-10-31T07:34:49.437Z,15.27
2022-10-31T07:38:14.678Z,15.41
2022-10-31T07:41:39.952Z,15.53
2022-10-31T07:45:05.221Z,15.69
2022-10-31T07:48:30.496Z,15.83
2022-10-31T07:51:55.787Z,15.96
2022-10-31T07:55:21.038Z,16.07
2022-10-31T07:58:46.305Z,16.200001
2022-10-31T08:02:11.567Z,16.34
2022-10-31T08:05:36.857Z,16.459999
2022-10-31T08:09:02.173Z,16.59
2022-10-31T08:12:27.429Z,16.700001
2022-10-31T08:15:52.700Z,16.77
2022-10-31T08:19:17.958Z,16.870001
2022-10-31T08:22:43.998Z,16.950001
2022-10-31T08:26:08.521Z,17.02
2022-10-31T08:29:33.737Z,17.07
2022-10-31T08:32:59.008Z,17.129999
2022-10-31T08:36:24.265Z,17.18
2022-10-31T08:39:49.539Z,17.219999
2022-10-31T08:43:14.877Z,17.25
2022-10-31T08:46:40.097Z,17.290001
2022-10-31T08:50:05.377Z,17.32
2022-10-31T08:53:30.627Z,17.370001
2022-10-31T08:56:55.859Z,17.41
2022-10-31T09:00:21.132Z,17.450001
2022-10-31T09:03:46.615Z,17.48
2022-10-31T09:07:26.844Z,17.51
2022-10-31T09:10:36.784Z,17.559999
2022-10-31T09:14:02.038Z,17.57
2022-10-31T09:17:27.293Z,17.59
2022-10-31T09:20:52.488Z,17.6
2022-10-31T09:24:17.722Z,17.629999
2022-10-31T09:27:42.986Z,17.690001
2022-10-31T09:31:08.221Z,17.75
2022-10-31T09:34:33.481Z,17.799999
2022-10-31T09:37:59.031Z,17.85
2022-10-31T09:41:23.925Z,17.92
2022-10-31T09:44:49.149Z,17.98
2022-10-31T09:48:14.395Z,18.01
2022-10-31T09:51:39.659Z,18.059999
2022-10-31T09:55:04.949Z,18.1
2022-10-31T09:58:31.269Z,18.120001
2022-10-31T10:01:55.370Z,18.110001
2022-10-31T10:05:20.569Z,18.129999
2022-10-31T10:08:45.846Z,18.17
2022-10-31T10:12:11.080Z,18.209999
2022-10-31T10:15:36.327Z,18.280001
2022-10-31T10:19:01.569Z,18.370001
2022-10-31T10:22:26.830Z,18.450001
2022-10-31T10:25:52.084Z,18.530001
2022-10-31T10:29:17.337Z,18.620001
2022-10-31T10:32:43.330Z,18.700001
2022-10-31T10:36:07.832Z,18.76
2022-10-31T10:39:33.063Z,18.860001
2022-10-31T10:42:58.315Z,18.93
2022-10-31T10:46:23.552Z,19.040001
2022-10-31T10:49:48.785Z,19.139999
2022-10-31T10:53:13.992Z,19.24
2022-10-31T10:56:39.235Z,19.299999
2022-10-31T11:00:04.496Z,19.370001
2022-10-31T11:03:29.704Z,19.440001
2022-10-31T11:06:54.935Z,19.49
2022-10-31T11:10:20.180Z,19.52
2022-10-31T11:13:45.399Z,19.58
2022-10-31T11:17:10.665Z,19.639999
2022-10-31T11:20:35.904Z,19.690001
2022-10-31T11:24:01.115Z,19.73
2022-10-31T11:27:26.373Z,19.780001
2022-10-31T11:30:51.614Z,19.809999
2022-10-31T11:34:16.875Z,19.85
2022-10-31T11:37:42.138Z,19.860001
2022-10-31T11:41:07.404Z,19.889999
2022-10-31T11:44:32.702Z,19.9
2022-10-31T11:47:59.730Z,19.91
2022-10-31T11:51:23.512Z,19.93
2022-10-31T11:54:48.525Z,19.969999
2022-10-31T11:58:13.790Z,20
2022-10-31T12:01:42.443Z,20.040001
2022-10-31T12:05:04.362Z,20.1
2022-10-31T12:08:29.659Z,20.139999
2022-10-31T12:11:54.913Z,20.17
2022-10-31T12:15:20.176Z,20.190001
2022-10-31T12:18:45.559Z,20.23
2022-10-31T12:22:10.830Z,20.26
2022-10-31T12:25:36.130Z,20.27
2022-10-31T12:29:01.386Z,20.27
2022-10-31T12:32:26.701Z,20.290001
2022-10-31T12:35:51.975Z,20.299999
2022-10-31T12:39:17.244Z,20.290001
2022-10-31T12:42:42.551Z,20.299999
2022-10-31T12:46:07.790Z,20.299999
2022-10-31T12:49:33.028Z,20.309999
2022-10-31T12:52:58.628Z,20.309999
2022-10-31T12:56:23.554Z,20.33
2022-10-31T12:59:48.859Z,20.33
2022-10-31T13:03:14.093Z,20.34
2022-10-31T13:06:43.598Z,20.34
2022-10-31T13:10:04.659Z,20.34
2022-10-31T13:13:29.917Z,20.34
2022-10-31T13:16:55.215Z,20.33
2022-10-31T13:20:20.448Z,20.32
2022-10-31T13:23:50.689Z,20.309999
2022-10-31T13:27:10.979Z,20.309999
2022-10-31T13:30:36.688Z,20.309999
2022-10-31T13:34:01.978Z,20.299999
2022-10-31T13:37:29.606Z,20.280001
2022-10-31T13:41:03.433Z,20.290001
2022-10-31T13:44:28.704Z,20.27
2022-10-31T13:47:54.109Z,20.26
2022-10-31T13:51:19.436Z,20.280001
2022-10-31T13:54:44.661Z,20.280001
2022-10-31T13:58:09.934Z,20.290001
2022-10-31T14:01:35.318Z,20.290001
2022-10-31T14:05:00.483Z,20.280001
2022-10-31T14:08:25.784Z,20.280001
2022-10-31T14:11:51.020Z,20.27
2022-10-31T14:15:16.278Z,20.26
2022-10-31T14:18:41.528Z,20.24
2022-10-31T14:22:06.814Z,20.190001
2022-10-31T14:25:32.133Z,20.15
2022-10-31T14:28:57.347Z,20.110001
2022-10-31T15:07:27.289Z,17.76
2022-10-31T15:10:52.628Z,17.879999
2022-10-31T15:14:17.897Z,17.99
2022-10-31T15:17:43.149Z,18.09
2022-10-31T15:21:09.833Z,18.200001
2022-10-31T15:24:33.738Z,18.27
2022-10-31T15:27:59.372Z,18.309999
2022-10-31T15:31:24.245Z,18.26
2022-10-31T15:34:49.519Z,18.190001
2022-10-31T15:38:14.813Z,18.18
2022-10-31T15:41:40.159Z,18.190001
2022-10-31T15:45:05.398Z,18.16
2022-10-31T15:48:30.645Z,18.139999
2022-10-31T15:51:55.945Z,18.07
2022-10-31T15:55:21.178Z,18.02
2022-10-31T15:58:46.410Z,17.99
2022-10-31T16:02:11.862Z,17.959999
2022-10-31T16:05:36.913Z,17.92
2022-10-31T16:09:02.177Z,17.860001
2022-10-31T16:12:27.402Z,17.83
2022-10-31T16:15:59.460Z,17.77
2022-10-31T16:19:17.892Z,17.719999
2022-10-31T16:22:43.143Z,17.690001
2022-10-31T16:26:08.356Z,17.639999
2022-10-31T16:29:33.607Z,17.620001
2022-10-31T16:32:59.198Z,17.6
2022-10-31T16:36:34.731Z,17.58
2022-10-31T16:39:49.297Z,17.549999
2022-10-31T16:43:14.531Z,17.530001
2022-10-31T16:46:39.757Z,17.49
2022-10-31T16:50:04.945Z,17.49
2022-10-31T16:53:30.191Z,17.530001
2022-10-31T16:56:55.392Z,17.530001
2022-10-31T17:00:20.582Z,17.459999
2022-10-31T17:03:45.821Z,17.43
2022-10-31T17:07:11.030Z,17.42
2022-10-31T17:10:36.255Z,17.35
2022-10-31T17:14:01.478Z,17.290001
2022-10-31T17:17:26.722Z,17.25
2022-10-31T17:20:51.961Z,17.219999
2022-10-31T17:24:17.166Z,17.209999
2022-10-31T17:27:43.550Z,17.219999
2022-10-31T17:31:07.613Z,17.190001
2022-10-31T17:34:32.819Z,17.17
2022-10-31T17:37:58.138Z,17.120001
2022-10-31T17:41:23.323Z,17.049999
2022-10-31T17:44:48.643Z,16.969999
2022-10-31T17:48:13.858Z,16.9
2022-10-31T17:51:39.076Z,16.85
2022-10-31T17:55:04.562Z,16.84
2022-10-31T17:58:30.387Z,16.82
2022-10-31T18:01:55.707Z,16.809999
2022-10-31T18:05:20.826Z,16.790001
2022-10-31T18:08:46.037Z,16.77
2022-10-31T18:12:11.293Z,16.73
2022-10-31T18:15:36.503Z,16.709999
2022-10-31T18:19:01.737Z,16.700001
2022-10-31T18:22:26.941Z,16.68
2022-10-31T18:25:52.139Z,16.66
2022-10-31T18:29:17.340Z,16.620001
2022-10-31T18:32:42.528Z,16.6
2022-10-31T18:36:07.745Z,16.59
2022-10-31T18:39:32.991Z,16.559999
2022-10-31T18:42:58.380Z,16.530001
2022-10-31T18:46:23.639Z,16.49
2022-10-31T18:49:48.893Z,16.48
2022-10-31T18:53:14.088Z,16.469999
2022-10-31T18:56:39.285Z,16.459999
2022-10-31T19:00:04.510Z,16.459999
2022-10-31T19:03:29.760Z,16.469999
2022-10-31T19:06:54.937Z,16.459999
2022-10-31T19:10:20.152Z,16.450001
2022-10-31T19:13:45.377Z,16.4
2022-10-31T19:17:10.587Z,16.34
2022-10-31T19:20:35.842Z,16.27
2022-10-31T19:24:01.041Z,16.200001
2022-10-31T19:27:26.233Z,16.139999
2022-10-31T19:30:51.431Z,16.08
2022-10-31T19:34:16.623Z,16.01
2022-10-31T19:37:41.841Z,15.95
2022-10-31T19:41:07.035Z,15.91
2022-10-31T19:44:32.229Z,15.86
2022-10-31T19:47:57.440Z,15.79
2022-10-31T19:51:22.643Z,15.7
2022-10-31T19:54:47.859Z,15.62
2022-10-31T19:58:13.284Z,15.53
2022-10-31T20:01:38.295Z,15.5
2022-10-31T20:05:03.452Z,15.47
2022-10-31T20:08:28.657Z,15.46
2022-10-31T20:11:53.896Z,15.46
2022-10-31T20:15:19.075Z,15.46
2022-10-31T20:18:44.285Z,15.48
2022-10-31T20:22:09.468Z,15.48
2022-10-31T20:25:34.668Z,15.5
2022-10-31T20:28:59.914Z,15.5
2022-10-31T20:32:25.106Z,15.49
2022-10-31T20:35:50.304Z,15.51
2022-10-31T20:39:15.499Z,15.54
2022-10-31T20:42:40.723Z,15.55
2022-10-31T20:46:06.246Z,15.56
2022-10-31T20:49:31.406Z,15.58
2022-10-31T20:52:56.605Z,15.6
2022-10-31T20:56:21.795Z,15.63
2022-10-31T20:59:46.992Z,15.64
2022-10-31T21:03:12.206Z,15.66
2022-10-31T21:06:37.373Z,15.69
2022-10-31T21:10:02.596Z,15.73
2022-10-31T21:13:27.798Z,15.79
2022-10-31T21:16:52.999Z,15.83
2022-10-31T21:20:18.215Z,15.84
2022-10-31T21:23:43.381Z,15.87
2022-10-31T21:27:09.999Z,15.9
2022-10-31T21:30:33.760Z,15.92
2022-10-31T21:33:58.970Z,15.92
2022-10-31T21:37:24.265Z,15.92
2022-10-31T21:40:49.449Z,15.91
2022-10-31T21:44:14.668Z,15.92
2022-10-31T21:47:39.877Z,15.94
2022-10-31T21:51:05.094Z,15.98
2022-10-31T21:54:30.315Z,16.02
2022-10-31T21:57:55.487Z,16.030001
2022-10-31T22:01:20.819Z,16.040001
2022-10-31T22:04:45.934Z,16.02
2022-10-31T22:08:11.149Z,16.01
2022-10-31T22:11:36.389Z,16.02
2022-10-31T22:15:01.588Z,16
2022-10-31T22:18:26.819Z,15.97
2022-10-31T22:21:52.027Z,15.94
2022-10-31T22:25:17.227Z,15.94
2022-10-31T22:28:42.460Z,15.94
2022-10-31T22:32:07.652Z,15.93
2022-10-31T22:35:32.870Z,15.91
2022-10-31T22:38:58.109Z,15.89
2022-10-31T22:42:23.296Z,15.86
2022-10-31T22:45:48.501Z,15.84
2022-10-31T22:49:13.698Z,15.82
2022-10-31T22:52:38.926Z,15.79
2022-10-31T22:56:04.147Z,15.76
2022-10-31T22:59:29.363Z,15.73
2022-10-31T23:02:54.625Z,15.72
2022-10-31T23:06:19.829Z,15.69
2022-10-31T23:09:45.045Z,15.67
2022-10-31T23:13:10.263Z,15.63
2022-10-31T23:16:35.502Z,15.56
2022-10-31T23:20:00.755Z,15.52
2022-10-31T23:23:25.969Z,15.49
2022-10-31T23:26:51.200Z,15.49
2022-10-31T23:30:16.411Z,15.44
2022-10-31T23:33:41.620Z,15.39
2022-10-31T23:40:32.090Z,15.28
2022-10-31T23:43:57.325Z,15.22
2022-10-31T23:47:22.542Z,15.13
2022-10-31T23:50:47.748Z,15.04
2022-10-31T23:54:13.015Z,14.95
2022-10-31T23:57:38.220Z,14.9
